Time;durP1;ratioP1;P1;durP2;ratioP2;P2;SDS_P1;SDS_P2;PMS_P1;PMS_P2;Temp;Humidity;BMP_temperature;BMP_pressure;BME280_temperature;BME280_humidity;BME280_pressure;Samples;Min_cycle;Max_cycle;Signal;HPM_P1;HPM_P2
2022/08/13 00:00:00;;;;;;;;;;;;;;;;;;4965639;28;20013;-42
2022/08/13 00:02:28;;;;;;;;;;;;;;;;;;4965076;28;19964;-43
2022/08/13 00:05:00;;;;;;;;;;;;;;;;;;4974605;28;20009;-42
2022/08/13 00:07:26;;;;;;;;;;;;;;;;;;4988459;28;19920;-43
2022/08/13 00:09:52;;;;;;;;;;;;;;;;;;4969159;28;19922;-42
2022/08/13 00:15:12;;;;;;;;;;;;;;;;;;5043972;28;19924;-41
2022/08/13 00:17:39;;;;;;;;;;;;;;;;;;5043944;28;19913;-41
2022/08/13 00:20:05;;;;;;;;;;;;;;;;;;5043814;28;19909;-41
2022/08/13 00:22:31;;;;;;;;;;;;;;;;;;5043746;28;19920;-42
2022/08/13 00:24:57;;;;;;;;;;;;;;;;;;5044236;28;19970;-41
2022/08/13 00:27:23;;;;;;;;;;;;;;;;;;5045388;28;20400;-41
2022/08/13 00:29:49;;;;;;;;;;;;;;;;;;5043556;28;19919;-41
2022/08/13 00:32:21;;;;;;;;;;;;;;;;;;5043742;28;20351;-41
2022/08/13 00:34:49;;;;;;;;;;;;;;;;;;5043401;28;19975;-41
2022/08/13 00:37:15;;;;;;;;;;;;;;;;;;5043777;28;19913;-41
2022/08/13 00:39:41;;;;;;;;;;;;;;;;;;5060026;28;20459;-42
2022/08/13 00:42:07;;;;;;;;;;;;;;;;;;5061106;28;19928;-42
2022/08/13 00:44:33;;;;;;;;;;;;;;;;;;5056069;28;19920;-42
2022/08/13 00:49:46;;;;;;;;;;;;;;;;;;5062879;28;19916;-41
2022/08/13 00:52:12;;;;;;;;;;;;;;;;;;5061436;28;19958;-42
2022/08/13 00:54:40;;;;;;;;;;;;;;;;;;5046360;28;20007;-42
2022/08/13 00:57:07;;;;;;;;;;;;;;;;;;5063070;28;19954;-41
2022/08/13 00:59:33;;;;;;;;;;;;;;;;;;5048051;28;20580;-41
2022/08/13 01:01:59;;;;;;;;;;;;;;;;;;5051706;28;19936;-41
2022/08/13 01:04:25;;;;;;;;;;;;;;;;;;5043465;28;19909;-42
2022/08/13 01:06:51;;;;;;;;;;;;;;;;;;5042971;28;19913;-41
2022/08/13 01:09:17;;;;;;;;;;;;;;;;;;5043239;28;20039;-41
2022/08/13 01:11:43;;;;;;;;;;;;;;;;;;5062629;28;20007;-41
2022/08/13 01:14:09;;;;;;;;;;;;;;;;;;5068558;28;19912;-42
2022/08/13 01:16:36;;;;;;;;;;;;;;;;;;5062615;28;19999;-41
2022/08/13 01:19:03;;;;;;;;;;;;;;;;;;5062630;28;19916;-41
2022/08/13 01:21:29;;;;;;;;;;;;;;;;;;5076721;28;20323;-41
2022/08/13 01:23:55;;;;;;;;;;;;;;;;;;5069425;28;19909;-42
2022/08/13 01:26:21;;;;;;;;;;;;;;;;;;5069329;28;19940;-42
2022/08/13 01:28:47;;;;;;;;;;;;;;;;;;5069159;28;19920;-41
2022/08/13 01:31:14;;;;;;;;;;;;;;;;;;5068715;28;20032;-42
2022/08/13 01:33:41;;;;;;;;;;;;;;;;;;5049124;28;19916;-41
2022/08/13 01:36:06;;;;;;;;;;;;;;;;;;5050356;28;19920;-42
2022/08/13 01:38:32;;;;;;;;;;;;;;;;;;5068744;28;20003;-43
2022/08/13 01:40:58;;;;;;;;;;;;;;;;;;5069248;28;19973;-42
2022/08/13 01:43:28;;;;;;;;;;;;;;;;;;5069513;28;19916;-41
2022/08/13 01:45:54;;;;;;;;;;;;;;;;;;5049743;28;20291;-43
2022/08/13 01:51:08;;;;;;;;;;;;;;;;;;5048938;28;19920;-41
2022/08/13 01:53:34;;;;;;;;;;;;;;;;;;5048592;28;19939;-42
2022/08/13 01:56:00;;;;;;;;;;;;;;;;;;5049130;28;19964;-41
2022/08/13 01:58:26;;;;;;;;;;;;;;;;;;5050899;28;19920;-41
2022/08/13 02:00:53;;;;;;;;;;;;;;;;;;5048227;28;19913;-41
2022/08/13 02:03:19;;;;;;;;;;;;;;;;;;5061484;28;19943;-41
2022/08/13 02:05:47;;;;;;;;;;;;;;;;;;5047298;28;20400;-41
2022/08/13 02:08:13;;;;;;;;;;;;;;;;;;5048154;28;19913;-41
2022/08/13 02:10:39;;;;;;;;;;;;;;;;;;5047365;28;19921;-41
2022/08/13 02:13:05;;;;;;;;;;;;;;;;;;5050665;28;19920;-41
2022/08/13 02:15:31;;;;;;;;;;;;;;;;;;5067893;28;19915;-42
2022/08/13 02:17:57;;;;;;;;;;;;;;;;;;5066516;28;19913;-42
2022/08/13 02:20:23;;;;;;;;;;;;;;;;;;5067928;28;19912;-42
2022/08/13 02:22:49;;;;;;;;;;;;;;;;;;5068334;28;19927;-41
2022/08/13 02:25:15;;;;;;;;;;;;;;;;;;5068531;28;19954;-42
2022/08/13 02:27:40;;;;;;;;;;;;;;;;;;5061203;28;19944;-41
2022/08/13 02:30:09;;;;;;;;;;;;;;;;;;5047921;28;19999;-41
2022/08/13 02:32:35;;;;;;;;;;;;;;;;;;5059686;28;19917;-42
2022/08/13 02:35:01;;;;;;;;;;;;;;;;;;5067170;28;20453;-42
2022/08/13 02:37:27;;;;;;;;;;;;;;;;;;5067970;28;19916;-41
2022/08/13 02:39:53;;;;;;;;;;;;;;;;;;5068691;28;20047;-42
2022/08/13 02:42:19;;;;;;;;;;;;;;;;;;5064246;28;19916;-43
2022/08/13 02:44:47;;;;;;;;;;;;;;;;;;5067776;28;19908;-41
2022/08/13 02:47:13;;;;;;;;;;;;;;;;;;5068001;28;19909;-42
2022/08/13 02:49:40;;;;;;;;;;;;;;;;;;5067265;28;19995;-42
2022/08/13 02:52:08;;;;;;;;;;;;;;;;;;5064390;28;19916;-41
2022/08/13 02:54:34;;;;;;;;;;;;;;;;;;5067832;28;19912;-43
2022/08/13 02:57:01;;;;;;;;;;;;;;;;;;5066663;28;19908;-41
2022/08/13 02:59:27;;;;;;;;;;;;;;;;;;5067232;28;19936;-42
2022/08/13 03:01:54;;;;;;;;;;;;;;;;;;5065678;28;19967;-41
2022/08/13 03:04:20;;;;;;;;;;;;;;;;;;5067137;28;19913;-41
2022/08/13 03:06:46;;;;;;;;;;;;;;;;;;5067106;28;19908;-42
2022/08/13 03:09:12;;;;;;;;;;;;;;;;;;5067493;28;19920;-42
2022/08/13 03:11:38;;;;;;;;;;;;;;;;;;5065915;28;19920;-41
2022/08/13 03:14:04;;;;;;;;;;;;;;;;;;5067512;28;19916;-41
2022/08/13 03:16:30;;;;;;;;;;;;;;;;;;5066230;28;19909;-42
2022/08/13 03:18:57;;;;;;;;;;;;;;;;;;5067017;28;19916;-42
2022/08/13 03:21:23;;;;;;;;;;;;;;;;;;5067536;28;19915;-41
2022/08/13 03:23:51;;;;;;;;;;;;;;;;;;5066429;28;19914;-41
2022/08/13 03:26:17;;;;;;;;;;;;;;;;;;5067171;28;19947;-41
2022/08/13 03:28:43;;;;;;;;;;;;;;;;;;5066786;28;19963;-42
2022/08/13 03:31:09;;;;;;;;;;;;;;;;;;5067072;28;19916;-43
2022/08/13 03:33:36;;;;;;;;;;;;;;;;;;5062806;28;19916;-41
2022/08/13 03:36:02;;;;;;;;;;;;;;;;;;5066925;28;20379;-41
2022/08/13 03:38:28;;;;;;;;;;;;;;;;;;5066926;28;20627;-41
2022/08/13 03:41:00;;;;;;;;;;;;;;;;;;5066600;28;19912;-41
2022/08/13 03:43:27;;;;;;;;;;;;;;;;;;5065961;28;19916;-41
2022/08/13 03:45:54;;;;;;;;;;;;;;;;;;5067172;28;19909;-41
2022/08/13 03:48:20;;;;;;;;;;;;;;;;;;5067511;28;20432;-41
2022/08/13 03:50:46;;;;;;;;;;;;;;;;;;5064485;28;20007;-43
2022/08/13 03:53:12;;;;;;;;;;;;;;;;;;5066833;28;19922;-41
2022/08/13 03:55:39;;;;;;;;;;;;;;;;;;5066539;28;19912;-42
2022/08/13 03:58:05;;;;;;;;;;;;;;;;;;5066660;28;20398;-41
2022/08/13 04:00:31;;;;;;;;;;;;;;;;;;5065184;28;19915;-41
2022/08/13 04:02:57;;;;;;;;;;;;;;;;;;5066561;28;19916;-42
2022/08/13 04:05:23;;;;;;;;;;;;;;;;;;5066662;28;19908;-41
2022/08/13 04:07:50;;;;;;;;;;;;;;;;;;5066986;28;19912;-41
2022/08/13 04:10:16;;;;;;;;;;;;;;;;;;5059646;28;19908;-41
2022/08/13 04:12:42;;;;;;;;;;;;;;;;;;5046233;28;19971;-41
2022/08/13 04:15:08;;;;;;;;;;;;;;;;;;5046502;28;19908;-41
2022/08/13 04:17:37;;;;;;;;;;;;;;;;;;5046171;28;19959;-41
2022/08/13 04:20:03;;;;;;;;;;;;;;;;;;5048995;28;19954;-42
2022/08/13 04:22:29;;;;;;;;;;;;;;;;;;5066423;28;19920;-41
2022/08/13 04:24:55;;;;;;;;;;;;;;;;;;5066161;28;19919;-41
2022/08/13 04:27:21;;;;;;;;;;;;;;;;;;5067257;28;19951;-41
2022/08/13 04:29:48;;;;;;;;;;;;;;;;;;5064855;28;20060;-41
2022/08/13 04:32:14;;;;;;;;;;;;;;;;;;5064586;28;19924;-41
2022/08/13 04:34:40;;;;;;;;;;;;;;;;;;5066095;28;20362;-41
2022/08/13 04:37:07;;;;;;;;;;;;;;;;;;5066436;28;19951;-41
2022/08/13 04:39:33;;;;;;;;;;;;;;;;;;5066104;28;19962;-41
2022/08/13 04:42:00;;;;;;;;;;;;;;;;;;5066629;28;19913;-41
2022/08/13 04:44:26;;;;;;;;;;;;;;;;;;5065162;28;19916;-41
2022/08/13 04:46:53;;;;;;;;;;;;;;;;;;5066545;28;19917;-41
2022/08/13 04:49:19;;;;;;;;;;;;;;;;;;5059027;28;20410;-41
2022/08/13 04:51:45;;;;;;;;;;;;;;;;;;5055129;28;19916;-42
2022/08/13 04:54:11;;;;;;;;;;;;;;;;;;5060099;28;19920;-40
2022/08/13 04:56:37;;;;;;;;;;;;;;;;;;5046569;28;20053;-41
2022/08/13 04:59:04;;;;;;;;;;;;;;;;;;5050151;28;19988;-41
2022/08/13 05:01:30;;;;;;;;;;;;;;;;;;5056168;28;19913;-41
2022/08/13 05:03:56;;;;;;;;;;;;;;;;;;5069800;28;19965;-40
2022/08/13 05:06:22;;;;;;;;;;;;;;;;;;5062619;28;19913;-41
2022/08/13 05:08:48;;;;;;;;;;;;;;;;;;5049389;28;19916;-42
2022/08/13 05:11:14;;;;;;;;;;;;;;;;;;5049791;28;19920;-41
2022/08/13 05:13:40;;;;;;;;;;;;;;;;;;5049475;28;19913;-41
2022/08/13 05:16:07;;;;;;;;;;;;;;;;;;5064677;28;19956;-41
2022/08/13 05:18:33;;;;;;;;;;;;;;;;;;5049153;28;19913;-41
2022/08/13 05:20:59;;;;;;;;;;;;;;;;;;5049487;28;19919;-41
2022/08/13 05:23:25;;;;;;;;;;;;;;;;;;5049679;28;20291;-40
2022/08/13 05:25:52;;;;;;;;;;;;;;;;;;5063975;28;19943;-41
2022/08/13 05:28:18;;;;;;;;;;;;;;;;;;5069380;28;19962;-41
2022/08/13 05:30:44;;;;;;;;;;;;;;;;;;5068841;28;19912;-41
2022/08/13 05:33:13;;;;;;;;;;;;;;;;;;5065625;28;19943;-42
2022/08/13 05:35:40;;;;;;;;;;;;;;;;;;5067187;28;19908;-41
2022/08/13 05:38:05;;;;;;;;;;;;;;;;;;5068453;28;19966;-41
2022/08/13 05:40:33;;;;;;;;;;;;;;;;;;5067087;28;19912;-41
2022/08/13 05:42:59;;;;;;;;;;;;;;;;;;5066442;28;19958;-41
2022/08/13 05:45:25;;;;;;;;;;;;;;;;;;5059458;28;20011;-41
2022/08/13 05:47:51;;;;;;;;;;;;;;;;;;5065183;28;20007;-41
2022/08/13 05:50:17;;;;;;;;;;;;;;;;;;5067363;28;19912;-41
2022/08/13 05:52:43;;;;;;;;;;;;;;;;;;5067279;28;20381;-42
2022/08/13 05:55:11;;;;;;;;;;;;;;;;;;5067346;28;19908;-41
2022/08/13 05:57:36;;;;;;;;;;;;;;;;;;5066465;28;19951;-42
2022/08/13 06:05:32;;;;;;;;;;;;;;;;;;5046027;28;19958;-41
2022/08/13 06:07:59;;;;;;;;;;;;;;;;;;5046706;28;21080;-42
2022/08/13 06:10:25;;;;;;;;;;;;;;;;;;5047136;28;20595;-41
2022/08/13 06:12:51;;;;;;;;;;;;;;;;;;5046681;28;19912;-41
2022/08/13 06:15:22;;;;;;;;;;;;;;;;;;5062386;28;19916;-41
2022/08/13 06:17:48;;;;;;;;;;;;;;;;;;5064386;28;20533;-41
2022/08/13 06:20:14;;;;;;;;;;;;;;;;;;5066676;28;19958;-41
2022/08/13 06:22:40;;;;;;;;;;;;;;;;;;5065501;28;19956;-43
2022/08/13 06:25:06;;;;;;;;;;;;;;;;;;5062958;28;19942;-40
2022/08/13 06:27:32;;;;;;;;;;;;;;;;;;5068045;28;19916;-40
2022/08/13 06:29:58;;;;;;;;;;;;;;;;;;5066001;28;19916;-40
2022/08/13 06:32:24;;;;;;;;;;;;;;;;;;5068099;28;19920;-41
2022/08/13 06:34:51;;;;;;;;;;;;;;;;;;5064790;28;19912;-41
2022/08/13 06:37:16;;;;;;;;;;;;;;;;;;5056509;28;19920;-40
2022/08/13 06:39:42;;;;;;;;;;;;;;;;;;5054386;28;19916;-40
2022/08/13 06:42:08;;;;;;;;;;;;;;;;;;5055832;28;19920;-40
2022/08/13 06:44:34;;;;;;;;;;;;;;;;;;5048207;28;19932;-40
2022/08/13 06:47:03;;;;;;;;;;;;;;;;;;5049947;28;19913;-40
2022/08/13 06:49:29;;;;;;;;;;;;;;;;;;5048153;28;19913;-40
2022/08/13 06:51:55;;;;;;;;;;;;;;;;;;5051667;28;20689;-40
2022/08/13 06:54:23;;;;;;;;;;;;;;;;;;5047685;28;19912;-40
2022/08/13 06:56:49;;;;;;;;;;;;;;;;;;5047159;28;19921;-40
2022/08/13 06:59:16;;;;;;;;;;;;;;;;;;5059243;28;19925;-40
2022/08/13 07:01:42;;;;;;;;;;;;;;;;;;5054249;28;19917;-40
2022/08/13 07:04:13;;;;;;;;;;;;;;;;;;5051880;28;19924;-40
2022/08/13 07:06:39;;;;;;;;;;;;;;;;;;5052726;28;20253;-40
2022/08/13 07:09:05;;;;;;;;;;;;;;;;;;5047500;28;19920;-40
2022/08/13 07:11:32;;;;;;;;;;;;;;;;;;5046885;28;20025;-40
2022/08/13 07:13:58;;;;;;;;;;;;;;;;;;5047134;28;20334;-40
2022/08/13 07:16:24;;;;;;;;;;;;;;;;;;5059042;28;19913;-40
2022/08/13 07:18:50;;;;;;;;;;;;;;;;;;5058881;28;20468;-40
2022/08/13 07:21:17;;;;;;;;;;;;;;;;;;5047371;28;20015;-41
2022/08/13 07:23:43;;;;;;;;;;;;;;;;;;5043112;28;19931;-40
2022/08/13 07:26:09;;;;;;;;;;;;;;;;;;5037553;28;21661;-40
2022/08/13 07:28:35;;;;;;;;;;;;;;;;;;5037439;28;19920;-40
2022/08/13 07:31:02;;;;;;;;;;;;;;;;;;5038862;28;19924;-40
2022/08/13 07:33:28;;;;;;;;;;;;;;;;;;5038246;28;19962;-40
2022/08/13 07:35:54;;;;;;;;;;;;;;;;;;5037373;28;19936;-40
2022/08/13 07:38:20;;;;;;;;;;;;;;;;;;5041063;28;19912;-40
2022/08/13 07:40:50;;;;;;;;;;;;;;;;;;5037783;28;19962;-40
2022/08/13 07:43:16;;;;;;;;;;;;;;;;;;5039743;28;19928;-40
2022/08/13 07:45:46;;;;;;;;;;;;;;;;;;5038516;28;19925;-40
2022/08/13 07:48:12;;;;;;;;;;;;;;;;;;5037096;28;20472;-41
2022/08/13 07:50:38;;;;;;;;;;;;;;;;;;5043323;28;20338;-41
2022/08/13 07:53:05;;;;;;;;;;;;;;;;;;5049235;28;19966;-41
2022/08/13 07:55:31;;;;;;;;;;;;;;;;;;5060655;28;19960;-40
2022/08/13 07:57:57;;;;;;;;;;;;;;;;;;5048578;28;20013;-42
2022/08/13 08:00:25;;;;;;;;;;;;;;;;;;5062111;28;19916;-41
2022/08/13 08:02:53;;;;;;;;;;;;;;;;;;5054792;28;19924;-41
2022/08/13 08:05:20;;;;;;;;;;;;;;;;;;5055190;28;19913;-42
2022/08/13 08:07:47;;;;;;;;;;;;;;;;;;5058085;28;19975;-41
2022/08/13 08:10:13;;;;;;;;;;;;;;;;;;5050245;28;20338;-41
2022/08/13 08:12:38;;;;;;;;;;;;;;;;;;5064406;28;19917;-42
2022/08/13 08:15:04;;;;;;;;;;;;;;;;;;5066352;28;19951;-41
2022/08/13 08:17:31;;;;;;;;;;;;;;;;;;5066607;28;19958;-41
2022/08/13 08:19:57;;;;;;;;;;;;;;;;;;5056952;28;20383;-42
2022/08/13 08:22:22;;;;;;;;;;;;;;;;;;5047993;28;19913;-41
2022/08/13 08:24:50;;;;;;;;;;;;;;;;;;5049251;28;19921;-41
2022/08/13 08:27:16;;;;;;;;;;;;;;;;;;5050231;28;19956;-41
2022/08/13 08:29:42;;;;;;;;;;;;;;;;;;5064850;28;19916;-42
2022/08/13 08:32:08;;;;;;;;;;;;;;;;;;5055830;28;19940;-41
2022/08/13 08:34:34;;;;;;;;;;;;;;;;;;5062736;28;19917;-40
2022/08/13 08:37:00;;;;;;;;;;;;;;;;;;5060427;28;19913;-40
2022/08/13 08:44:58;;;;;;;;;;;;;;;;;;5067246;28;19920;-40
2022/08/13 08:47:25;;;;;;;;;;;;;;;;;;5062937;28;19913;-42
2022/08/13 08:49:51;;;;;;;;;;;;;;;;;;5060386;28;19912;-41
2022/08/13 08:52:17;;;;;;;;;;;;;;;;;;5051889;28;20155;-41
2022/08/13 08:54:43;;;;;;;;;;;;;;;;;;5052631;28;19956;-41
2022/08/13 08:57:09;;;;;;;;;;;;;;;;;;5050486;28;19948;-42
2022/08/13 08:59:46;;;;;;;;;;;;;;;;;;5051766;28;19955;-41
2022/08/13 09:02:12;;;;;;;;;;;;;;;;;;5063378;28;19940;-40
2022/08/13 09:04:38;;;;;;;;;;;;;;;;;;5049829;28;19912;-44
2022/08/13 09:07:04;;;;;;;;;;;;;;;;;;5060002;28;19962;-42
2022/08/13 09:09:30;;;;;;;;;;;;;;;;;;5052239;28;19978;-41
2022/08/13 09:11:56;;;;;;;;;;;;;;;;;;5043905;28;19916;-41
2022/08/13 09:14:22;;;;;;;;;;;;;;;;;;5054886;28;20007;-42
2022/08/13 09:16:48;;;;;;;;;;;;;;;;;;5060885;28;19916;-42
2022/08/13 09:19:14;;;;;;;;;;;;;;;;;;5068402;28;19913;-41
2022/08/13 09:21:41;;;;;;;;;;;;;;;;;;5055311;28;19935;-42
2022/08/13 09:24:07;;;;;;;;;;;;;;;;;;5060150;28;20380;-41
2022/08/13 09:26:33;;;;;;;;;;;;;;;;;;5048688;28;19931;-41
2022/08/13 09:28:59;;;;;;;;;;;;;;;;;;5056942;28;19912;-43
2022/08/13 09:31:25;;;;;;;;;;;;;;;;;;5049788;28;19939;-43
2022/08/13 09:33:53;;;;;;;;;;;;;;;;;;5062089;28;20612;-42
2022/08/13 09:36:19;;;;;;;;;;;;;;;;;;5059609;28;19912;-40
2022/08/13 09:38:45;;;;;;;;;;;;;;;;;;5051304;28;19920;-40
2022/08/13 09:41:14;;;;;;;;;;;;;;;;;;5068410;28;19912;-43
2022/08/13 09:43:40;;;;;;;;;;;;;;;;;;5059648;28;20284;-42
2022/08/13 09:46:07;;;;;;;;;;;;;;;;;;5059373;28;19913;-45
2022/08/13 09:48:33;;;;;;;;;;;;;;;;;;5061248;28;19917;-42
2022/08/13 09:51:02;;;;;;;;;;;;;;;;;;5058554;28;20020;-43
2022/08/13 09:53:28;;;;;;;;;;;;;;;;;;5065833;28;20005;-41
2022/08/13 09:55:55;;;;;;;;;;;;;;;;;;5054046;28;20376;-42
2022/08/13 09:58:22;;;;;;;;;;;;;;;;;;5051074;28;19917;-43
2022/08/13 10:00:48;;;;;;;;;;;;;;;;;;5048779;28;19919;-43
2022/08/13 10:03:17;;;;;;;;;;;;;;;;;;5049007;28;19909;-42
2022/08/13 10:05:43;;;;;;;;;;;;;;;;;;5065118;28;19922;-43
2022/08/13 10:08:09;;;;;;;;;;;;;;;;;;5067790;28;19913;-43
2022/08/13 10:10:35;;;;;;;;;;;;;;;;;;5068057;28;20402;-41
2022/08/13 10:13:02;;;;;;;;;;;;;;;;;;5068618;28;19981;-41
2022/08/13 10:15:28;;;;;;;;;;;;;;;;;;5067078;28;19960;-41
2022/08/13 10:17:55;;;;;;;;;;;;;;;;;;5088434;28;19951;-41
2022/08/13 10:20:24;;;;;;;;;;;;;;;;;;5089315;28;19914;-42
2022/08/13 10:22:50;;;;;;;;;;;;;;;;;;5089167;28;19908;-43
2022/08/13 10:25:16;;;;;;;;;;;;;;;;;;5062699;28;20299;-46
2022/08/13 10:27:42;;;;;;;;;;;;;;;;;;5048020;28;19916;-42
2022/08/13 10:30:08;;;;;;;;;;;;;;;;;;5058935;28;19928;-42
2022/08/13 10:32:34;;;;;;;;;;;;;;;;;;5065111;28;19920;-40
2022/08/13 10:35:03;;;;;;;;;;;;;;;;;;5066703;28;19967;-42
2022/08/13 10:37:29;;;;;;;;;;;;;;;;;;5067116;28;20298;-41
2022/08/13 10:39:55;;;;;;;;;;;;;;;;;;5056948;28;19921;-42
2022/08/13 10:42:21;;;;;;;;;;;;;;;;;;5057689;28;19912;-43
2022/08/13 10:44:52;;;;;;;;;;;;;;;;;;5067239;28;20031;-43
2022/08/13 10:47:17;;;;;;;;;;;;;;;;;;5063870;28;19920;-42
2022/08/13 10:49:43;;;;;;;;;;;;;;;;;;5047117;28;20410;-42
2022/08/13 10:52:09;;;;;;;;;;;;;;;;;;5047354;28;19920;-43
2022/08/13 10:54:35;;;;;;;;;;;;;;;;;;5057635;28;19912;-45
2022/08/13 10:57:01;;;;;;;;;;;;;;;;;;5065513;28;19934;-42
2022/08/13 10:59:27;;;;;;;;;;;;;;;;;;5064344;28;19920;-44
2022/08/13 11:01:53;;;;;;;;;;;;;;;;;;5050188;28;20007;-42
2022/08/13 11:04:19;;;;;;;;;;;;;;;;;;5047365;28;19943;-41
2022/08/13 11:06:46;;;;;;;;;;;;;;;;;;5052713;28;19920;-43
2022/08/13 11:09:12;;;;;;;;;;;;;;;;;;5067563;28;19912;-46
2022/08/13 11:11:38;;;;;;;;;;;;;;;;;;5058389;28;19927;-42
2022/08/13 11:14:04;;;;;;;;;;;;;;;;;;5052871;28;19920;-43
2022/08/13 11:18:59;;;;;;;;;;;;;;;;;;5060959;28;19948;-44
2022/08/13 11:21:25;;;;;;;;;;;;;;;;;;5049272;28;19927;-45
2022/08/13 11:23:51;;;;;;;;;;;;;;;;;;5056359;28;19917;-43
2022/08/13 11:26:17;;;;;;;;;;;;;;;;;;5049840;28;19951;-42
2022/08/13 11:28:43;;;;;;;;;;;;;;;;;;5055592;28;20002;-45
2022/08/13 11:31:09;;;;;;;;;;;;;;;;;;5046901;28;19983;-46
2022/08/13 11:33:34;;;;;;;;;;;;;;;;;;5057493;28;19917;-42
2022/08/13 11:36:00;;;;;;;;;;;;;;;;;;5065557;28;19913;-44
2022/08/13 11:38:26;;;;;;;;;;;;;;;;;;5065627;28;20003;-41
2022/08/13 11:40:52;;;;;;;;;;;;;;;;;;5064908;28;19913;-43
2022/08/13 11:43:18;;;;;;;;;;;;;;;;;;5064486;28;19919;-43
2022/08/13 11:45:45;;;;;;;;;;;;;;;;;;5065260;28;20395;-43
2022/08/13 11:48:11;;;;;;;;;;;;;;;;;;5039802;28;20427;-42
2022/08/13 11:50:38;;;;;;;;;;;;;;;;;;5056171;28;20031;-43
2022/08/13 11:53:04;;;;;;;;;;;;;;;;;;5045355;28;19970;-43
2022/08/13 11:55:30;;;;;;;;;;;;;;;;;;5045433;28;19909;-45
2022/08/13 11:57:56;;;;;;;;;;;;;;;;;;5045312;28;20355;-42
2022/08/13 12:00:22;;;;;;;;;;;;;;;;;;5061944;28;19951;-42
2022/08/13 12:02:48;;;;;;;;;;;;;;;;;;5057320;28;19923;-43
2022/08/13 12:05:14;;;;;;;;;;;;;;;;;;5053467;28;19917;-43
2022/08/13 12:07:43;;;;;;;;;;;;;;;;;;5064881;28;19909;-45
2022/08/13 12:10:08;;;;;;;;;;;;;;;;;;5066720;28;19924;-42
2022/08/13 12:12:34;;;;;;;;;;;;;;;;;;5061409;28;19930;-45
2022/08/13 12:15:00;;;;;;;;;;;;;;;;;;5049307;28;19913;-43
2022/08/13 12:17:27;;;;;;;;;;;;;;;;;;5064503;28;19917;-46
2022/08/13 12:19:53;;;;;;;;;;;;;;;;;;5063724;28;20331;-46
2022/08/13 12:22:19;;;;;;;;;;;;;;;;;;5066522;28;19916;-44
2022/08/13 12:24:45;;;;;;;;;;;;;;;;;;5064164;28;19912;-43
2022/08/13 12:27:11;;;;;;;;;;;;;;;;;;5063646;28;19958;-46
2022/08/13 12:29:37;;;;;;;;;;;;;;;;;;5046866;28;19974;-42
2022/08/13 12:32:03;;;;;;;;;;;;;;;;;;5045912;28;20007;-44
2022/08/13 12:34:28;;;;;;;;;;;;;;;;;;5046572;28;20448;-43
2022/08/13 12:36:54;;;;;;;;;;;;;;;;;;5046038;28;19912;-44
2022/08/13 12:39:21;;;;;;;;;;;;;;;;;;5046891;28;19955;-42
2022/08/13 12:41:47;;;;;;;;;;;;;;;;;;5045936;28;19909;-42
2022/08/13 12:44:12;;;;;;;;;;;;;;;;;;5061195;28;19923;-42
2022/08/13 12:46:38;;;;;;;;;;;;;;;;;;5063670;28;19920;-43
2022/08/13 12:49:04;;;;;;;;;;;;;;;;;;5065936;28;19913;-44
2022/08/13 12:51:30;;;;;;;;;;;;;;;;;;5050971;28;19963;-43
2022/08/13 12:53:56;;;;;;;;;;;;;;;;;;5050398;28;19917;-42
2022/08/13 12:56:22;;;;;;;;;;;;;;;;;;5044746;28;19912;-43
2022/08/13 12:58:49;;;;;;;;;;;;;;;;;;5044709;28;19958;-43
2022/08/13 13:01:15;;;;;;;;;;;;;;;;;;5044382;28;19913;-42
2022/08/13 13:03:41;;;;;;;;;;;;;;;;;;5044390;28;20137;-42
2022/08/13 13:06:08;;;;;;;;;;;;;;;;;;5044576;28;19916;-43
2022/08/13 13:08:34;;;;;;;;;;;;;;;;;;5053227;28;20442;-42
2022/08/13 13:11:00;;;;;;;;;;;;;;;;;;5064315;28;20050;-42
2022/08/13 13:13:27;;;;;;;;;;;;;;;;;;5044905;28;20414;-43
2022/08/13 13:15:53;;;;;;;;;;;;;;;;;;5044048;28;19935;-43
2022/08/13 13:18:19;;;;;;;;;;;;;;;;;;5028072;28;19962;-42
2022/08/13 13:20:45;;;;;;;;;;;;;;;;;;5047738;28;20300;-43
2022/08/13 13:23:12;;;;;;;;;;;;;;;;;;5048126;28;19912;-44
2022/08/13 13:25:40;;;;;;;;;;;;;;;;;;5047727;28;19913;-44
2022/08/13 13:28:07;;;;;;;;;;;;;;;;;;5048056;28;19909;-43
2022/08/13 13:30:33;;;;;;;;;;;;;;;;;;5047100;28;19954;-43
2022/08/13 13:32:59;;;;;;;;;;;;;;;;;;5047927;28;20366;-43
2022/08/13 13:35:26;;;;;;;;;;;;;;;;;;5047755;28;19916;-42
2022/08/13 13:37:52;;;;;;;;;;;;;;;;;;5064414;28;19912;-42
2022/08/13 13:40:19;;;;;;;;;;;;;;;;;;5067328;28;20352;-44
2022/08/13 13:42:45;;;;;;;;;;;;;;;;;;5052136;28;19973;-43
2022/08/13 13:45:11;;;;;;;;;;;;;;;;;;5048755;28;19982;-42
2022/08/13 13:47:37;;;;;;;;;;;;;;;;;;5047821;28;20007;-42
2022/08/13 13:50:04;;;;;;;;;;;;;;;;;;5048609;28;19995;-43
2022/08/13 13:52:30;;;;;;;;;;;;;;;;;;5049433;28;19917;-43
2022/08/13 13:54:56;;;;;;;;;;;;;;;;;;5053171;28;19921;-44
2022/08/13 13:57:22;;;;;;;;;;;;;;;;;;5070401;28;19912;-43
2022/08/13 13:59:48;;;;;;;;;;;;;;;;;;5088592;28;19966;-44
2022/08/13 14:02:16;;;;;;;;;;;;;;;;;;5077775;28;20560;-43
2022/08/13 14:04:44;;;;;;;;;;;;;;;;;;5067974;28;19908;-45
2022/08/13 14:07:10;;;;;;;;;;;;;;;;;;5068602;28;20294;-43
2022/08/13 14:09:36;;;;;;;;;;;;;;;;;;5067991;28;19913;-42
2022/08/13 14:12:02;;;;;;;;;;;;;;;;;;5054431;28;20368;-42
2022/08/13 14:14:29;;;;;;;;;;;;;;;;;;5048016;28;19909;-43
2022/08/13 14:16:56;;;;;;;;;;;;;;;;;;5058280;28;19917;-46
2022/08/13 14:19:23;;;;;;;;;;;;;;;;;;5066879;28;20291;-43
2022/08/13 14:21:51;;;;;;;;;;;;;;;;;;5052230;28;19917;-43
2022/08/13 14:24:17;;;;;;;;;;;;;;;;;;5049967;28;19909;-47
2022/08/13 14:26:44;;;;;;;;;;;;;;;;;;5048837;28;20031;-44
2022/08/13 14:29:10;;;;;;;;;;;;;;;;;;5051943;28;19916;-44
2022/08/13 14:31:36;;;;;;;;;;;;;;;;;;5056270;28;19917;-43
2022/08/13 14:34:02;;;;;;;;;;;;;;;;;;5057027;28;19909;-45
2022/08/13 14:36:28;;;;;;;;;;;;;;;;;;5057947;28;20007;-43
2022/08/13 14:38:54;;;;;;;;;;;;;;;;;;5054137;28;19975;-44
2022/08/13 14:41:20;;;;;;;;;;;;;;;;;;5059638;28;19920;-43
2022/08/13 14:43:46;;;;;;;;;;;;;;;;;;5061280;28;19915;-44
2022/08/13 14:46:12;;;;;;;;;;;;;;;;;;5061862;28;19915;-46
2022/08/13 14:48:39;;;;;;;;;;;;;;;;;;5065984;28;19912;-45
2022/08/13 14:51:05;;;;;;;;;;;;;;;;;;5068013;28;19959;-43
2022/08/13 14:53:31;;;;;;;;;;;;;;;;;;5054937;28;20074;-42
2022/08/13 14:55:58;;;;;;;;;;;;;;;;;;5060350;28;20455;-46
2022/08/13 14:58:25;;;;;;;;;;;;;;;;;;5049416;28;19923;-43
2022/08/13 15:00:54;;;;;;;;;;;;;;;;;;5047893;28;19924;-43
2022/08/13 15:03:21;;;;;;;;;;;;;;;;;;5047145;28;19920;-43
2022/08/13 15:05:47;;;;;;;;;;;;;;;;;;5046878;28;19924;-43
2022/08/13 15:08:15;;;;;;;;;;;;;;;;;;5045582;28;20311;-42
2022/08/13 15:10:41;;;;;;;;;;;;;;;;;;5057721;28;19952;-43
2022/08/13 15:13:09;;;;;;;;;;;;;;;;;;5066329;28;19924;-42
2022/08/13 15:15:36;;;;;;;;;;;;;;;;;;5066250;28;20012;-44
2022/08/13 15:18:02;;;;;;;;;;;;;;;;;;5054307;28;19974;-46
2022/08/13 15:20:29;;;;;;;;;;;;;;;;;;5046635;28;19908;-43
2022/08/13 15:22:55;;;;;;;;;;;;;;;;;;5046338;28;20045;-43
2022/08/13 15:25:23;;;;;;;;;;;;;;;;;;5046526;28;19956;-44
2022/08/13 15:27:51;;;;;;;;;;;;;;;;;;5058572;28;19962;-44
2022/08/13 15:30:18;;;;;;;;;;;;;;;;;;5052086;28;20132;-43
2022/08/13 15:32:44;;;;;;;;;;;;;;;;;;5061522;28;19916;-44
2022/08/13 15:35:12;;;;;;;;;;;;;;;;;;5066087;28;19918;-44
2022/08/13 15:37:39;;;;;;;;;;;;;;;;;;5066277;28;20279;-43
2022/08/13 15:40:06;;;;;;;;;;;;;;;;;;5064690;28;20384;-44
2022/08/13 15:42:32;;;;;;;;;;;;;;;;;;5052745;28;19913;-44
2022/08/13 15:44:58;;;;;;;;;;;;;;;;;;5046867;28;19931;-43
2022/08/13 15:47:28;;;;;;;;;;;;;;;;;;5046438;28;19913;-44
2022/08/13 15:49:54;;;;;;;;;;;;;;;;;;5046380;28;20386;-45
2022/08/13 15:52:20;;;;;;;;;;;;;;;;;;5046502;28;20015;-45
2022/08/13 15:54:47;;;;;;;;;;;;;;;;;;5044360;28;19917;-46
2022/08/13 15:57:13;;;;;;;;;;;;;;;;;;5060740;28;20391;-46
2022/08/13 15:59:39;;;;;;;;;;;;;;;;;;5066054;28;19908;-43
2022/08/13 16:02:06;;;;;;;;;;;;;;;;;;5050584;28;19960;-43
2022/08/13 16:04:32;;;;;;;;;;;;;;;;;;5046855;28;19934;-43
2022/08/13 16:06:58;;;;;;;;;;;;;;;;;;5046313;28;19909;-45
2022/08/13 16:09:24;;;;;;;;;;;;;;;;;;5046171;28;19913;-47
2022/08/13 16:11:51;;;;;;;;;;;;;;;;;;5045222;28;20374;-44
2022/08/13 16:14:18;;;;;;;;;;;;;;;;;;5045688;28;20000;-43
2022/08/13 16:16:44;;;;;;;;;;;;;;;;;;5045926;28;19919;-44
2022/08/13 16:19:10;;;;;;;;;;;;;;;;;;5047295;28;19917;-47
2022/08/13 16:21:36;;;;;;;;;;;;;;;;;;5065953;28;19915;-44
2022/08/13 16:24:02;;;;;;;;;;;;;;;;;;5034691;28;19913;-49
2022/08/13 16:26:28;;;;;;;;;;;;;;;;;;5063630;28;19912;-49
2022/08/13 16:28:53;;;;;;;;;;;;;;;;;;5059998;28;19916;-46
2022/08/13 16:31:20;;;;;;;;;;;;;;;;;;5056917;28;20525;-46
2022/08/13 16:33:48;;;;;;;;;;;;;;;;;;5054679;28;20358;-46
2022/08/13 16:36:15;;;;;;;;;;;;;;;;;;5053523;28;20284;-45
2022/08/13 16:38:42;;;;;;;;;;;;;;;;;;5057046;28;19966;-47
2022/08/13 16:41:09;;;;;;;;;;;;;;;;;;5060109;28;19916;-46
2022/08/13 16:43:35;;;;;;;;;;;;;;;;;;5056897;28;20390;-46
2022/08/13 16:46:03;;;;;;;;;;;;;;;;;;5044386;28;19912;-47
2022/08/13 16:48:29;;;;;;;;;;;;;;;;;;5061071;28;20019;-48
2022/08/13 16:50:58;;;;;;;;;;;;;;;;;;5065313;28;20382;-45
2022/08/13 16:53:25;;;;;;;;;;;;;;;;;;5065921;28;19909;-45
2022/08/13 16:55:51;;;;;;;;;;;;;;;;;;5047644;28;19953;-47
2022/08/13 16:58:17;;;;;;;;;;;;;;;;;;5038565;28;19916;-47
2022/08/13 17:00:43;;;;;;;;;;;;;;;;;;5031369;28;19947;-44